Butterfield, Arkansas
Current Conditions -  °F | °C
As of 12:53 AM on Thursday 27 Nov 2014 (Local Time) from KHOT Reporting Station
Clear Clear  
Wind Chill: 39°   Ceiling: Unl
Heat Index: 42°   Visibility: 10mi
Dew Point: 26°   Wind: 5mph
Humidity: 53%   Direction: 330°NNW
Pressure: 30.33"   Gusts: NA
Location:  34.3189°N, 92.8629°W
Report Text: KHOT 270653Z AUTO 33004KT 10SM CLR 06/M03 A3033 RMK AO2 SLP268 T00561033
Loading
Personal Weather Stations






























Interactive Weather Map New forecast layout! Learn more

10-Day Weather Forecast

Advertisements
Track Severe Weather on mobile